Latest Weather Observations for Walpole North

IDW60801

Issued at 12:33 pm WST Sunday 24 July 2016 (issued every 30 minutes, with the page automatically refreshed every 10 minutes)

About weather observations | Map of weather stations | Latest weather observations for WA | Other Formats
Station Details ID: 009998 Name: NORTH WALPOLE Lat: -34.95 Lon: 116.72 Height: 73.0 m
Data from the previous 72 hours. | See also: Recent months at Walpole North
Date/Time
WST
Temp
°C
App
Temp
°C
Dew
Point
°C
Rel
Hum
%
Delta-T
°C
Wind Press
QNH
hPa
Press
MSL
hPa
Rain since
9am
mm
Dir  Spd
km/h
Gust
km/h
Spd
kts
Gust
kts
24/12:30pm 13.0 10.3 9.1 77 2.0 WSW 13 20 7 11 1025.2 1025.2 0.0
24/12:00pm 12.2 8.3 8.5 78 1.8 WSW 19 28 10 15 1025.7 1025.7 0.0
24/11:30am 12.2 9.1 7.3 72 2.4 W 13 20 7 11 1026.0 1026.0 0.0
24/11:00am 11.9 9.2 9.1 83 1.4 W 13 20 7 11 1026.4 1026.4 0.0
24/10:30am 11.9 8.1 7.6 75 2.1 WNW 17 24 9 13 1026.4 1026.4 0.0
24/10:00am 10.9 7.9 7.8 81 1.5 WNW 13 20 7 11 1026.5 1026.5 0.0
24/09:30am 9.8 6.8 7.9 88 0.9 NW 13 17 7 9 1026.6 1026.6 0.0
24/09:00am 9.4 7.5 7.7 89 0.8 NW 7 11 4 6 1026.5 1026.5 0.6
24/08:30am 8.9 7.1 7.8 93 0.5 NW 7 9 4 5 1026.2 1026.2 0.6
24/08:00am 8.5 6.8 7.7 95 0.4 NW 6 17 3 9 1025.9 1025.9 0.4
24/07:30am 8.5 7.9 7.6 94 0.4 CALM 0 0 0 0 1025.8 1025.8 0.4
24/07:00am 8.5 6.6 7.7 95 0.4 W 7 9 4 5 1025.7 1025.7 0.4
24/06:30am 8.4 6.5 7.5 94 0.4 WNW 7 11 4 6 1025.4 1025.4 0.4
24/06:00am 8.4 6.0 6.9 90 0.7 WNW 9 15 5 8 1025.2 1025.2 0.4
24/05:30am 8.6 6.4 6.1 84 1.1 WSW 7 11 4 6 1024.9 1024.9 0.4
24/05:00am 8.6 6.0 5.9 83 1.2 W 9 13 5 7 1024.9 1024.9 0.4
24/04:30am 9.1 6.8 5.8 80 1.5 W 7 17 4 9 1024.7 1024.7 0.4
24/04:00am 9.2 6.8 5.4 77 1.7 WNW 7 11 4 6 1024.6 1024.6 0.4
24/03:30am 9.1 6.5 4.3 72 2.1 W 7 11 4 6 1024.7 1024.7 0.4
24/03:00am 9.2 6.6 4.2 71 2.2 WSW 7 11 4 6 1024.8 1024.8 0.4
24/02:30am 8.9 6.5 4.1 72 2.1 WSW 6 11 3 6 1025.1 1025.1 0.4
24/02:00am 8.6 5.9 3.8 72 2.1 WSW 7 11 4 6 1025.1 1025.1 0.4
24/01:30am 9.0 6.0 4.2 72 2.1 WSW 9 15 5 8 1025.0 1025.0 0.4
24/01:00am 8.9 5.6 4.7 75 1.9 WSW 11 19 6 10 1024.9 1024.9 0.4
24/12:30am 8.9 7.5 5.5 79 1.5 W 2 7 1 4 1024.9 1024.9 0.4
24/12:00am 9.2 5.6 5.0 75 1.9 WSW 13 22 7 12 1024.9 1024.9 0.4
 
Date/Time
WST
Temp
°C
App
Temp
°C
Dew
Point
°C
Rel
Hum
%
Delta-T
°C
Wind Press
QNH
hPa
Press
MSL
hPa
Rain since
9am
mm
Dir  Spd
km/h
Gust
km/h
Spd
kts
Gust
kts
23/11:30pm 9.1 5.7 3.9 70 2.3 SW 11 19 6 10 1025.1 1025.1 0.4
23/11:00pm 9.3 6.0 4.5 72 2.1 SW 11 20 6 11 1025.0 1025.0 0.4
23/10:30pm 8.9 5.7 5.3 78 1.6 SW 11 20 6 11 1024.8 1024.8 0.4
23/10:00pm 8.5 5.6 4.9 78 1.6 WSW 9 15 5 8 1024.8 1024.8 0.2
23/09:30pm 8.8 4.8 5.0 77 1.7 WSW 15 22 8 12 1024.8 1024.8 0.2
23/09:00pm 9.1 5.6 5.5 78 1.6 SW 13 22 7 12 1024.6 1024.6 0.2
23/08:30pm 9.4 5.9 3.6 67 2.5 SW 11 20 6 11 1024.3 1024.3 0.2
23/08:00pm 9.4 5.5 3.2 65 2.7 SW 13 20 7 11 1024.2 1024.2 0.2
23/07:30pm 9.4 5.0 2.9 64 2.8 SW 15 26 8 14 1024.1 1024.1 0.2
23/07:00pm 9.4 5.5 3.4 66 2.6 SW 13 22 7 12 1023.9 1023.9 0.2
23/06:30pm 8.6 5.2 3.8 72 2.1 WSW 11 17 6 9 1023.6 1023.6 0.2
23/06:00pm 9.0 5.0 2.6 64 2.7 WSW 13 24 7 13 1023.5 1023.5 0.2
23/05:30pm 9.2 4.6 1.6 59 3.2 SW 15 22 8 12 1023.2 1023.2 0.2
23/05:00pm 10.1 6.1 2.9 61 3.1 SW 13 24 7 13 1022.8 1022.8 0.2
23/04:30pm 10.6 5.7 2.2 56 3.6 SW 17 28 9 15 1022.6 1022.6 0.2
23/04:00pm 10.7 5.7 3.7 62 3.1 SSW 19 39 10 21 1022.4 1022.4 0.2
23/03:30pm 10.9 6.0 2.0 54 3.8 SW 17 28 9 15 1022.2 1022.2 0.2
23/03:00pm 11.8 6.6 3.3 56 3.7 SW 20 43 11 23 1022.1 1022.1 0.2
23/02:30pm 12.1 7.2 4.3 59 3.5 SW 19 33 10 18 1021.6 1021.6 0.2
23/02:00pm 11.5 6.5 4.7 63 3.1 SW 20 44 11 24 1021.5 1021.5 0.2
23/01:30pm 10.4 6.7 6.4 76 1.9 SW 15 28 8 15 1021.5 1021.5 0.2
23/01:08pm 10.9 4.8 6.8 76 1.9 SW 28 48 15 26 1021.7 1021.7 0.2
23/01:00pm 11.9 6.4 5.8 66 2.8 SW 24 39 13 21 1021.3 1021.3 0.2
23/12:32pm 10.2 3.9 5.8 74 2.0 SSW 28 46 15 25 1021.4 1021.4 0.2
23/12:30pm 10.1 3.5 5.9 75 1.9 SSW 30 46 16 25 1021.5 1021.5 0.2
23/12:26pm 10.3 4.1 6.3 76 1.9 SW 28 46 15 25 1021.5 1021.5 0.2
23/12:00pm 11.0 6.2 5.7 70 2.4 SW 20 41 11 22 1021.4 1021.4 0.0
23/11:30am 11.4 6.2 5.7 68 2.7 SSW 22 39 12 21 1021.3 1021.3 0.0
23/11:00am 11.0 5.7 4.9 66 2.8 SW 22 35 12 19 1021.1 1021.1 0.0
23/10:37am 11.0 4.7 5.7 70 2.5 SW 28 46 15 25 1020.9 1020.9 0.0
23/10:30am 11.2 5.9 4.9 65 2.9 SW 22 43 12 23 1020.8 1020.8 0.0
23/10:00am 10.9 6.0 5.2 68 2.6 SW 20 35 11 19 1020.3 1020.3 0.0
23/09:30am 10.6 5.8 5.8 72 2.2 SW 20 35 11 19 1019.5 1019.6 0.0
23/09:00am 10.1 5.8 8.0 87 1.0 SW 20 37 11 20 1019.1 1019.2 7.8
23/08:30am 9.7 5.1 9.6 99 0.1 SW 24 43 13 23 1018.7 1018.8 7.8
23/08:00am 9.7 6.8 9.6 99 0.0 W 15 28 8 15 1018.5 1018.6 7.2
23/07:30am 8.9 4.8 8.8 99 0.0 WNW 20 30 11 16 1017.9 1018.0 4.8
23/07:00am 8.7 4.2 8.6 99 0.0 NW 22 30 12 16 1017.7 1017.8 2.0
23/06:30am 8.6 4.0 8.2 97 0.2 NW 22 32 12 17 1017.7 1017.8 1.2
23/06:00am 8.4 3.5 8.3 99 0.0 NW 24 35 13 19 1017.9 1018.0 1.2
23/05:30am 7.9 3.8 7.8 99 0.0 NW 19 26 10 14 1018.2 1018.3 1.2
23/05:00am 8.3 4.0 7.9 97 0.2 NNW 20 35 11 19 1018.4 1018.5 0.8
23/04:30am 8.0 3.6 7.4 96 0.3 NNW 20 32 11 17 1018.5 1018.6 0.6
23/04:00am 8.0 3.7 7.7 98 0.1 NW 20 28 11 15 1019.0 1019.1 0.6
23/03:30am 7.7 3.3 7.6 99 0.0 NW 20 30 11 16 1019.4 1019.5 0.6
23/03:00am 7.5 3.3 7.4 99 0.0 NNW 19 24 10 13 1019.7 1019.8 0.6
23/02:30am 7.7 4.2 7.1 96 0.3 WNW 15 24 8 13 1020.5 1020.5 0.4
23/02:00am 7.6 3.0 6.5 93 0.5 NW 20 28 11 15 1020.2 1020.2 0.4
23/01:30am 7.7 3.1 6.5 92 0.6 NNW 20 26 11 14 1020.4 1020.4 0.4
23/01:00am 7.5 3.0 6.0 90 0.7 NW 19 26 10 14 1020.7 1020.7 0.4
23/12:30am 7.7 3.7 6.5 92 0.6 NW 17 22 9 12 1020.8 1020.8 0.4
23/12:00am 7.2 4.4 7.1 99 0.0 NNW 11 20 6 11 1021.1 1021.1 0.4
 
Date/Time
WST
Temp
°C
App
Temp
°C
Dew
Point
°C
Rel
Hum
%
Delta-T
°C
Wind Press
QNH
hPa
Press
MSL
hPa
Rain since
9am
mm
Dir  Spd
km/h
Gust
km/h
Spd
kts
Gust
kts
22/11:30pm 7.2 4.4 7.1 99 0.0 NNW 11 17 6 9 1021.4 1021.4 0.4
22/11:00pm 7.4 4.2 6.8 96 0.3 NW 13 19 7 10 1021.6 1021.6 0.4
22/10:30pm 7.7 5.3 7.0 95 0.3 NW 9 13 5 7 1021.7 1021.7 0.2
22/10:00pm 7.8 4.7 7.1 95 0.3 NNW 13 17 7 9 1022.1 1022.1 0.2
22/09:30pm 8.0 4.2 7.4 96 0.3 NNW 17 24 9 13 1022.3 1022.3 0.2
22/09:00pm 7.9 4.4 7.1 95 0.4 NNW 15 22 8 12 1022.4 1022.4 0.2
22/08:30pm 8.1 5.8 7.3 95 0.4 WNW 9 13 5 7 1022.6 1022.6 0.2
22/08:00pm 8.1 4.9 6.9 92 0.6 NNW 13 17 7 9 1022.5 1022.5 0.0
22/07:30pm 8.3 5.1 6.8 90 0.7 WNW 13 22 7 12 1022.7 1022.7 0.0
22/07:00pm 8.4 5.7 5.7 83 1.2 NNW 9 11 5 6 1022.4 1022.4 0.0
22/06:30pm 8.7 7.8 6.0 83 1.2 CALM 0 0 0 0 1022.4 1022.4 0.0
22/06:00pm 8.2 7.2 5.8 85 1.1 CALM 0 0 0 0 1022.4 1022.4 0.0
22/05:30pm 9.0 7.2 5.6 79 1.5 WNW 4 11 2 6 1022.4 1022.4 0.0
22/05:00pm 10.3 9.4 5.9 74 2.0 CALM 0 7 0 4 1022.4 1022.4 0.0
22/04:30pm 10.9 8.7 5.4 69 2.5 WSW 6 13 3 7 1022.4 1022.4 0.0
22/04:00pm 11.1 8.6 5.0 66 2.8 WSW 7 13 4 7 1022.3 1022.3 0.0
22/03:30pm 11.3 8.5 5.2 66 2.8 SW 9 15 5 8 1022.2 1022.2 0.0
22/03:00pm 11.0 8.2 5.1 67 2.7 SW 9 17 5 9 1022.2 1022.2 0.0
22/02:30pm 11.7 7.8 5.3 65 3.0 SW 15 24 8 13 1022.1 1022.1 0.0
22/02:00pm 12.4 8.9 5.3 62 3.3 SSW 13 24 7 13 1022.1 1022.1 0.0
22/01:30pm 11.6 7.7 5.3 65 2.9 SW 15 28 8 15 1022.2 1022.2 0.0
22/01:00pm 11.9 9.3 6.2 68 2.7 WSW 9 15 5 8 1022.2 1022.2 0.0
22/12:30pm 10.3 5.6 5.1 70 2.4 SW 19 35 10 19 1022.4 1022.4 0.0
22/12:00pm 11.5 7.4 6.2 70 2.5 SSW 17 30 9 16 1022.4 1022.4 0.0
22/11:30am 10.8 6.3 6.0 72 2.2 SW 19 30 10 16 1022.5 1022.5 0.0
22/11:00am 10.9 8.0 6.3 73 2.2 W 11 15 6 8 1022.5 1022.5 0.0
22/10:30am 10.7 6.4 5.3 69 2.5 SSW 17 28 9 15 1022.4 1022.4 0.0
22/10:00am 11.4 7.8 5.1 65 2.9 SW 13 20 7 11 1021.8 1021.8 0.0
22/09:30am 10.0 6.5 5.4 73 2.1 SW 13 24 7 13 1021.4 1021.4 0.0
22/09:00am 10.1 5.9 5.5 73 2.1 SSW 17 28 9 15 1020.9 1020.9 11.6
22/08:30am 8.3 5.1 5.1 80 1.4 WSW 11 19 6 10 1020.4 1020.4 11.6
22/08:00am 8.2 4.4 5.7 84 1.1 WSW 15 22 8 12 1020.1 1020.1 11.6
22/07:30am 7.9 4.1 3.9 76 1.7 SSW 13 20 7 11 1019.5 1019.6 11.0
22/07:00am 8.7 4.3 2.5 65 2.6 SSW 15 24 8 13 1019.0 1019.1 11.0
22/06:30am 8.4 4.0 0.6 58 3.1 SW 13 24 7 13 1018.7 1018.8 11.0
22/06:00am 9.0 4.4 1.4 59 3.1 SW 15 20 8 11 1018.4 1018.5 11.0
22/05:30am 9.4 4.5 2.0 60 3.1 SW 17 33 9 18 1018.0 1018.1 11.0
22/05:00am 8.8 3.7 3.2 68 2.4 SSW 19 35 10 19 1017.7 1017.8 11.0
22/04:30am 8.7 3.7 3.7 71 2.2 SSW 19 30 10 16 1017.1 1017.2 11.0
22/04:00am 9.2 4.1 4.0 70 2.3 SSW 20 30 11 16 1017.0 1017.1 10.8
22/03:30am 9.2 4.8 2.5 63 2.8 SW 15 28 8 15 1016.3 1016.3 10.8
22/03:00am 8.9 4.5 2.5 64 2.7 SW 15 26 8 14 1016.2 1016.2 10.8
22/02:30am 8.5 2.3 2.1 64 2.7 SSW 24 37 13 20 1016.1 1016.1 10.8
22/02:11am 8.7 1.9 3.1 68 2.4 SSW 28 50 15 27 1015.9 1015.9 10.8
22/02:00am 9.1 3.1 1.0 57 3.3 SSW 22 37 12 20 1015.7 1015.7 10.8
22/01:30am 9.4 4.4 3.4 66 2.6 SW 19 30 10 16 1015.2 1015.2 10.8
22/01:00am 9.4 3.4 3.6 67 2.5 SW 24 37 13 20 1014.6 1014.6 10.8
22/12:30am 8.9 2.9 3.3 68 2.4 SW 24 44 13 24 1014.3 1014.3 10.8
22/12:00am 9.2 3.2 3.2 66 2.6 SW 24 41 13 22 1013.7 1013.7 10.8
 
Date/Time
WST
Temp
°C
App
Temp
°C
Dew
Point
°C
Rel
Hum
%
Delta-T
°C
Wind Press
QNH
hPa
Press
MSL
hPa
Rain since
9am
mm
Dir  Spd
km/h
Gust
km/h
Spd
kts
Gust
kts
21/11:30pm 9.6 4.1 4.0 68 2.5 SW 22 41 12 22 1013.2 1013.2 10.8
21/11:00pm 9.1 3.7 4.3 72 2.1 WSW 22 35 12 19 1012.7 1012.7 10.8
21/10:41pm 9.3 2.7 4.1 70 2.3 SW 28 50 15 27 1012.4 1012.4 10.8
21/10:30pm 9.0 2.8 4.2 72 2.1 WSW 26 52 14 28 1012.3 1012.3 10.8
21/10:00pm 8.9 2.8 4.9 76 1.8 WSW 26 44 14 24 1011.7 1011.7 10.6
21/09:30pm 8.7 2.5 6.0 83 1.2 SW 28 48 15 26 1011.4 1011.4 10.4
21/09:19pm 9.4 3.2 6.1 80 1.5 SW 28 54 15 29 1011.1 1011.1 10.4
21/09:00pm 10.2 3.6 4.1 66 2.7 WSW 28 43 15 23 1010.4 1010.4 10.2
21/08:30pm 9.5 3.0 4.9 73 2.1 SW 28 50 15 27 1009.9 1009.9 10.2
21/08:10pm 10.2 3.8 5.2 71 2.3 WSW 28 57 15 31 1009.8 1009.8 10.2
21/08:00pm 10.1 3.6 4.9 70 2.4 WSW 28 44 15 24 1009.3 1009.3 10.2
21/07:30pm 10.0 3.1 4.8 70 2.3 WSW 30 50 16 27 1008.7 1008.7 10.2
21/07:00pm 9.9 3.7 6.3 78 1.7 WSW 28 46 15 25 1008.1 1008.1 10.0
21/06:32pm 9.1 3.1 7.2 88 0.9 WSW 28 57 15 31 1007.2 1007.2 9.8
21/06:30pm 9.2 4.0 7.3 88 0.9 WSW 24 57 13 31 1007.2 1007.2 9.8
21/06:04pm 9.6 3.3 7.2 85 1.1 WSW 30 48 16 26 1007.1 1007.1 9.4
21/06:00pm 10.0 4.6 7.8 86 1.1 WSW 26 41 14 22 1006.8 1006.8 9.2
21/05:30pm 9.3 5.9 9.2 99 0.0 W 17 33 9 18 1006.2 1006.2 9.2
21/05:00pm 9.0 4.6 8.9 99 0.0 W 22 44 12 24 1006.0 1006.0 8.2
21/04:34pm 9.3 3.7 8.8 97 0.2 WNW 28 61 15 33 1005.7 1005.7 5.4
21/04:30pm 9.3 3.8 9.0 98 0.1 NW 28 61 15 33 1005.2 1005.2 5.2
21/04:00pm 8.9 2.9 8.8 99 0.0 NW 30 46 16 25 1005.4 1005.5 3.8
21/03:45pm 8.7 1.3 8.3 97 0.2 NW 37 56 20 30 1005.7 1005.7 3.8
21/03:30pm 8.6 1.4 7.8 95 0.4 NW 35 48 19 26 1006.0 1006.0 2.8
21/03:00pm 9.8 2.1 6.9 82 1.4 WNW 37 78 20 42 1005.5 1005.6 0.8
21/02:30pm 12.1 2.5 4.6 60 3.4 NW 44 69 24 37 1005.0 1005.0 0.2
21/02:27pm 12.3 3.7 4.5 59 3.6 NW 39 69 21 37 1004.6 1004.6 0.2
21/02:14pm 12.5 5.2 4.7 59 3.6 WNW 32 50 17 27 1004.9 1004.9 0.2
21/02:00pm 12.3 4.4 4.3 58 3.7 NW 35 48 19 26 1005.1 1005.1 0.2
21/01:40pm 12.7 5.8 4.4 57 3.8 NW 30 50 16 27 1005.7 1005.7 0.2
21/01:30pm 12.4 5.1 4.6 59 3.6 NW 32 44 17 24 1006.0 1006.0 0.2
21/01:00pm 12.3 5.7 4.0 57 3.8 WNW 28 46 15 25 1006.8 1006.8 0.2
21/12:55pm 12.1 5.2 2.8 53 4.1 WNW 28 46 15 25 1006.9 1006.9 0.2

Other Formats:

Comma delimited format used in spreadsheet applications
http://www.bom.gov.au/fwo/IDW60801/IDW60801.95647.axf

JavaScript Object Notation format (JSON) in row-major order
http://www.bom.gov.au/fwo/IDW60801/IDW60801.95647.json